Terminal Aerodrome Forecast
Issued by NWS St Louis, MO

Home | Current Version | Previous Version | Text Only | Print | Product List | Glossary On
Versions: 1 2 3 4 5 6 7 8 9 10 11 12 13 14 15 16 17 18 19 20 21 22 23 24 25 26 27
161
FTUS43 KLSX 251456 AAA
TAFSTL
TAF AMD
KSTL 251456Z 2515/2618 22004KT P6SM FEW080 BKN250
     FM251700 21005KT P6SM VCTS BKN050CB
     FM260000 VRB03KT P6SM SCT100=

USA.gov is the U.S. government's official web portal to all federal, state and local government web resources and services.